Time;durP1;ratioP1;P1;durP2;ratioP2;P2;SDS_P1;SDS_P2;PMS_P1;PMS_P2;Temp;Humidity;BMP_temperature;BMP_pressure;BME280_temperature;BME280_humidity;BME280_pressure;Samples;Min_cycle;Max_cycle;Signal;HPM_P1;HPM_P2
2021/06/16 00:00:17;;;;;;;4.65;1.80;;;18.40;64.70;;;;;;5035807;28;20036;-86
2021/06/16 00:02:43;;;;;;;6.45;1.45;;;18.40;64.50;;;;;;5018976;28;20044;-82
2021/06/16 00:05:13;;;;;;;3.75;1.52;;;18.40;64.40;;;;;;5019919;28;20038;-82
2021/06/16 00:07:38;;;;;;;7.97;0.90;;;18.30;64.30;;;;;;5023656;28;20025;-83
2021/06/16 00:10:09;;;;;;;5.30;1.15;;;18.30;64.30;;;;;;5035680;28;20104;-83
2021/06/16 00:12:35;;;;;;;9.63;1.60;;;18.20;64.30;;;;;;5035272;28;20053;-83
2021/06/16 00:15:01;;;;;;;5.63;1.48;;;18.20;64.40;;;;;;5037389;28;20072;-85
2021/06/16 00:17:27;;;;;;;4.28;1.08;;;18.20;64.50;;;;;;5031536;28;20091;-83
2021/06/16 00:19:52;;;;;;;6.38;1.92;;;18.20;64.60;;;;;;5035655;28;20025;-82
2021/06/16 00:22:18;;;;;;;9.70;2.08;;;18.10;64.80;;;;;;5017840;28;20029;-83
2021/06/16 00:24:44;;;;;;;5.80;1.20;;;18.00;64.90;;;;;;4998796;28;20045;-84
2021/06/16 00:27:09;;;;;;;5.32;1.10;;;18.10;65.00;;;;;;5019963;28;20036;-83
2021/06/16 00:29:35;;;;;;;6.07;1.50;;;18.00;65.00;;;;;;4998567;28;20030;-83
2021/06/16 00:32:01;;;;;;;6.95;1.73;;;18.00;65.20;;;;;;5015403;28;20079;-82
2021/06/16 00:34:27;;;;;;;4.93;1.50;;;17.90;65.30;;;;;;5021949;28;20038;-82
2021/06/16 00:36:53;;;;;;;6.95;1.00;;;17.90;65.30;;;;;;5015738;28;20033;-82
2021/06/16 00:39:18;;;;;;;6.88;1.80;;;17.90;65.50;;;;;;5016074;28;20048;-82
2021/06/16 00:41:45;;;;;;;5.82;1.48;;;17.90;65.60;;;;;;5014889;28;20334;-85
2021/06/16 00:44:11;;;;;;;5.88;1.33;;;17.90;65.80;;;;;;5018567;28;20075;-82
2021/06/16 00:46:37;;;;;;;6.13;1.63;;;17.80;65.70;;;;;;5034518;28;20021;-82
2021/06/16 00:49:04;;;;;;;5.80;1.20;;;17.80;65.70;;;;;;5014826;28;20102;-81
2021/06/16 00:51:30;;;;;;;4.72;1.10;;;17.80;65.60;;;;;;5031589;28;20386;-82
2021/06/16 00:53:55;;;;;;;5.78;1.20;;;17.70;65.60;;;;;;4999418;28;20025;-82
2021/06/16 00:56:21;;;;;;;4.15;1.25;;;17.70;65.60;;;;;;5015422;28;20040;-82
2021/06/16 00:58:47;;;;;;;8.10;1.52;;;17.70;65.50;;;;;;5030165;28;20052;-82
2021/06/16 01:01:13;;;;;;;4.85;1.58;;;17.80;65.50;;;;;;5034759;28;20118;-83
2021/06/16 01:03:45;;;;;;;5.68;1.13;;;17.80;65.50;;;;;;5021323;28;20045;-83
2021/06/16 01:06:21;;;;;;;5.78;1.38;;;17.70;65.70;;;;;;5027029;28;20025;-82
2021/06/16 01:09:24;;;;;;;5.82;1.70;;;17.70;65.90;;;;;;5035910;28;20234;-83
2021/06/16 01:12:14;;;;;;;5.75;1.50;;;17.70;65.90;;;;;;5014904;28;20079;-82
2021/06/16 01:15:03;;;;;;;4.85;1.42;;;17.70;66.00;;;;;;5032655;28;20083;-82
2021/06/16 01:17:33;;;;;;;5.18;1.40;;;17.50;66.30;;;;;;5025948;28;20054;-88
2021/06/16 01:19:59;;;;;;;5.45;1.60;;;17.50;66.50;;;;;;5027971;28;20071;-83
2021/06/16 01:22:42;;;;;;;6.13;1.40;;;17.50;66.60;;;;;;5033028;28;20033;-82
2021/06/16 01:25:30;;;;;;;4.80;1.58;;;17.50;66.60;;;;;;5032243;28;20054;-83
2021/06/16 01:27:57;;;;;;;10.45;1.85;;;17.50;66.50;;;;;;5038018;28;20055;-83
2021/06/16 01:30:25;;;;;;;4.60;1.70;;;17.50;66.50;;;;;;5035944;28;20033;-83
2021/06/16 01:32:53;;;;;;;4.63;1.50;;;17.50;66.50;;;;;;5017328;28;20107;-84
2021/06/16 01:35:19;;;;;;;5.38;1.85;;;17.50;66.40;;;;;;5027875;28;20037;-84
2021/06/16 01:37:45;;;;;;;9.75;1.52;;;17.50;66.50;;;;;;5016565;28;20397;-85
2021/06/16 01:40:12;;;;;;;6.90;1.50;;;17.50;66.40;;;;;;5012723;28;20022;-83
2021/06/16 01:42:40;;;;;;;8.52;2.03;;;17.40;66.70;;;;;;5031530;28;20032;-82
2021/06/16 01:45:07;;;;;;;5.47;1.70;;;17.30;67.00;;;;;;5013927;28;20448;-82
2021/06/16 01:47:34;;;;;;;7.47;1.67;;;17.30;67.20;;;;;;5018889;28;20034;-87
2021/06/16 01:50:02;;;;;;;6.90;1.73;;;17.20;67.40;;;;;;5020088;28;20027;-82
2021/06/16 01:52:29;;;;;;;3.92;1.77;;;17.10;67.50;;;;;;5019571;28;20021;-82
2021/06/16 01:54:56;;;;;;;6.50;2.00;;;17.10;67.70;;;;;;5032343;28;20094;-82
2021/06/16 01:57:24;;;;;;;7.40;2.22;;;17.10;67.60;;;;;;5048234;28;20033;-80
2021/06/16 01:59:53;;;;;;;4.72;1.85;;;17.10;67.70;;;;;;5036344;28;20454;-81
2021/06/16 02:02:19;;;;;;;9.55;1.92;;;17.10;67.70;;;;;;5037034;28;20032;-83
2021/06/16 02:04:44;;;;;;;7.20;2.05;;;17.10;67.70;;;;;;5034268;28;20034;-83
2021/06/16 02:07:17;;;;;;;5.03;2.13;;;17.10;67.90;;;;;;5001904;28;20037;-83
2021/06/16 02:09:45;;;;;;;6.20;1.90;;;17.00;68.00;;;;;;5035407;28;20030;-82
2021/06/16 02:12:13;;;;;;;6.20;1.58;;;17.00;68.10;;;;;;5002236;28;20049;-81
2021/06/16 02:14:50;;;;;;;7.60;2.35;;;17.00;68.10;;;;;;5053252;28;20036;-82
2021/06/16 02:17:18;;;;;;;7.40;1.85;;;16.90;68.30;;;;;;5035562;28;20024;-81
2021/06/16 02:19:46;;;;;;;9.65;2.15;;;16.80;68.30;;;;;;5018158;28;20026;-81
2021/06/16 02:22:13;;;;;;;6.95;1.80;;;16.90;68.30;;;;;;5002160;28;20373;-81
2021/06/16 02:24:40;;;;;;;4.80;1.52;;;16.90;68.30;;;;;;5018035;28;20049;-84
2021/06/16 02:27:06;;;;;;;5.97;1.60;;;16.90;68.40;;;;;;5017895;28;20033;-81
2021/06/16 02:29:32;;;;;;;8.90;1.50;;;16.90;68.30;;;;;;5020167;28;20120;-81
2021/06/16 02:31:59;;;;;;;4.85;1.65;;;17.00;68.20;;;;;;5017857;28;20028;-82
2021/06/16 02:34:28;;;;;;;5.82;1.98;;;16.90;68.60;;;;;;5026314;28;20064;-81
2021/06/16 02:36:59;;;;;;;5.28;1.80;;;17.00;68.30;;;;;;5022025;28;20466;-81
2021/06/16 02:39:38;;;;;;;5.05;1.70;;;16.90;68.20;;;;;;5037374;28;20530;-82
2021/06/16 02:42:06;;;;;;;6.35;1.73;;;16.90;68.20;;;;;;5022158;28;20025;-82
2021/06/16 02:44:32;;;;;;;7.63;1.80;;;16.90;68.30;;;;;;5017787;28;20026;-81
2021/06/16 02:46:59;;;;;;;8.55;1.45;;;16.90;68.30;;;;;;5035031;28;20033;-81
2021/06/16 02:49:45;;;;;;;7.70;1.83;;;16.90;68.40;;;;;;5001474;28;20044;-81
2021/06/16 02:52:14;;;;;;;8.00;2.00;;;17.00;68.20;;;;;;5034934;28;20092;-82
2021/06/16 02:54:44;;;;;;;5.97;1.42;;;17.10;68.10;;;;;;5034756;28;20076;-86
2021/06/16 02:57:17;;;;;;;6.38;1.58;;;17.20;68.00;;;;;;5035762;28;20079;-82
2021/06/16 02:59:46;;;;;;;7.70;1.83;;;17.10;67.70;;;;;;5035893;28;20070;-86
2021/06/16 03:02:12;;;;;;;6.40;1.90;;;17.10;67.90;;;;;;5036802;28;20025;-84
2021/06/16 03:04:40;;;;;;;7.40;2.00;;;17.00;68.00;;;;;;5011026;28;20126;-84
2021/06/16 03:07:06;;;;;;;5.05;1.88;;;16.90;68.10;;;;;;5015534;28;20029;-83
2021/06/16 03:09:32;;;;;;;5.97;1.70;;;16.80;68.30;;;;;;5035789;28;20032;-83
2021/06/16 03:11:59;;;;;;;7.90;1.75;;;16.80;68.60;;;;;;5019587;28;20063;-83
2021/06/16 03:14:26;;;;;;;8.15;2.47;;;16.80;68.50;;;;;;5011783;28;20029;-82
2021/06/16 03:16:53;;;;;;;5.55;2.03;;;16.70;68.60;;;;;;5035756;28;20025;-82
2021/06/16 03:19:21;;;;;;;7.13;1.95;;;16.70;68.80;;;;;;5052475;28;20128;-81
2021/06/16 03:21:48;;;;;;;9.30;2.38;;;16.70;68.80;;;;;;5037549;28;20029;-84
2021/06/16 03:24:17;;;;;;;4.72;1.55;;;16.70;69.10;;;;;;5010613;28;20038;-82
2021/06/16 03:26:43;;;;;;;5.93;2.05;;;16.70;69.50;;;;;;5031853;28;20021;-82
2021/06/16 03:29:10;;;;;;;6.75;2.15;;;16.80;68.90;;;;;;5053095;28;20032;-82
2021/06/16 03:31:40;;;;;;;8.32;2.00;;;16.90;68.70;;;;;;5024376;28;20029;-83
2021/06/16 03:34:06;;;;;;;8.50;1.95;;;16.90;68.40;;;;;;5016336;28;20029;-82
2021/06/16 03:36:34;;;;;;;9.18;2.33;;;16.90;68.60;;;;;;5016968;28;20045;-82
2021/06/16 03:39:01;;;;;;;5.25;2.05;;;16.90;68.70;;;;;;5015936;28;20033;-82
2021/06/16 03:41:27;;;;;;;7.50;1.90;;;16.90;68.60;;;;;;5016756;28;20025;-82
2021/06/16 03:43:54;;;;;;;5.47;2.10;;;16.80;68.80;;;;;;5016478;28;20057;-83
2021/06/16 03:46:22;;;;;;;6.28;2.03;;;16.80;68.90;;;;;;5017444;28;20022;-82
2021/06/16 03:48:52;;;;;;;9.80;2.30;;;16.80;69.00;;;;;;5049785;28;20470;-85
2021/06/16 03:51:18;;;;;;;5.63;2.05;;;16.90;68.90;;;;;;5030549;28;20036;-83
2021/06/16 03:53:47;;;;;;;6.13;2.38;;;17.00;68.60;;;;;;5034806;28;20025;-83
2021/06/16 03:56:13;;;;;;;11.65;2.80;;;17.10;68.40;;;;;;5016112;28;20095;-81
2021/06/16 03:58:42;;;;;;;6.50;1.92;;;17.20;68.30;;;;;;5026052;28;20033;-80
2021/06/16 04:01:13;;;;;;;6.18;2.33;;;17.10;68.40;;;;;;5031382;28;20124;-80
2021/06/16 04:03:39;;;;;;;7.43;2.30;;;17.20;68.30;;;;;;5016332;28;20033;-82
2021/06/16 04:06:07;;;;;;;4.80;2.40;;;17.30;68.20;;;;;;5043941;28;20033;-81
2021/06/16 04:08:35;;;;;;;8.88;2.40;;;17.40;68.20;;;;;;5012320;28;20041;-82
2021/06/16 04:11:01;;;;;;;8.00;2.33;;;17.50;67.90;;;;;;5016880;28;20488;-80
2021/06/16 04:13:26;;;;;;;6.38;2.13;;;17.70;67.50;;;;;;4999650;28;20029;-80
2021/06/16 04:15:52;;;;;;;10.23;2.72;;;18.00;67.00;;;;;;5032913;28;20148;-85
2021/06/16 04:18:18;;;;;;;7.15;2.10;;;18.10;66.40;;;;;;5014697;28;20087;-83
2021/06/16 04:20:44;;;;;;;6.65;2.42;;;18.30;66.00;;;;;;5018058;28;20087;-81
2021/06/16 04:23:09;;;;;;;12.02;3.03;;;18.90;64.90;;;;;;5005192;28;20458;-81
2021/06/16 04:25:35;;;;;;;7.90;2.35;;;19.80;63.00;;;;;;5012839;28;20052;-81
2021/06/16 04:28:01;;;;;;;6.80;2.10;;;20.40;61.60;;;;;;5000932;28;20040;-81
2021/06/16 04:30:27;;;;;;;7.60;2.60;;;20.70;60.70;;;;;;5020231;28;20113;-82
2021/06/16 04:32:54;;;;;;;5.75;2.33;;;20.90;60.10;;;;;;5034417;28;20025;-83
2021/06/16 04:35:20;;;;;;;8.63;2.45;;;21.10;59.70;;;;;;5038891;28;20041;-83
2021/06/16 04:37:47;;;;;;;7.57;2.42;;;21.40;58.90;;;;;;5030446;28;20107;-82
2021/06/16 04:40:12;;;;;;;5.55;2.35;;;21.50;58.20;;;;;;5018781;28;20188;-82
2021/06/16 04:42:38;;;;;;;7.35;2.88;;;21.50;58.30;;;;;;5050788;28;20108;-83
2021/06/16 04:45:06;;;;;;;8.57;2.83;;;21.50;58.30;;;;;;5014754;28;20156;-84
2021/06/16 04:47:33;;;;;;;13.10;2.60;;;21.50;58.30;;;;;;5016028;28;20033;-84
2021/06/16 04:49:58;;;;;;;10.27;2.50;;;21.20;58.80;;;;;;5015278;28;20018;-86
2021/06/16 04:52:24;;;;;;;8.85;2.58;;;21.10;59.40;;;;;;5016905;28;20033;-84
2021/06/16 04:54:50;;;;;;;10.57;2.60;;;21.00;59.80;;;;;;5006124;28;20382;-84
2021/06/16 04:57:16;;;;;;;7.53;2.58;;;21.10;59.70;;;;;;4998726;28;20363;-83
2021/06/16 04:59:42;;;;;;;10.70;2.67;;;21.30;59.20;;;;;;5026239;28;20362;-82
2021/06/16 05:02:08;;;;;;;8.50;2.67;;;21.70;58.30;;;;;;5017497;28;20025;-83
2021/06/16 05:04:34;;;;;;;10.77;2.55;;;21.90;57.30;;;;;;5000849;28;20041;-84
2021/06/16 05:06:59;;;;;;;14.35;2.60;;;21.60;58.10;;;;;;5034876;28;20469;-85
2021/06/16 05:09:25;;;;;;;10.90;2.35;;;21.30;58.90;;;;;;5000769;28;20040;-84
2021/06/16 05:11:51;;;;;;;15.55;2.97;;;21.70;58.80;;;;;;5019149;28;20021;-83
2021/06/16 05:14:17;;;;;;;14.27;2.63;;;22.20;57.10;;;;;;5034425;28;20528;-84
2021/06/16 05:16:42;;;;;;;11.95;2.85;;;22.50;56.50;;;;;;5015574;28;20033;-82
2021/06/16 05:19:20;;;;;;;14.98;2.95;;;23.00;55.50;;;;;;5031516;28;20061;-84
2021/06/16 05:21:46;;;;;;;12.73;2.33;;;23.20;54.60;;;;;;5015828;28;20033;-81
2021/06/16 05:24:12;;;;;;;12.52;2.53;;;23.40;54.20;;;;;;5023329;28;20144;-82
2021/06/16 05:26:38;;;;;;;13.27;2.80;;;23.90;53.30;;;;;;5023841;28;20520;-82
2021/06/16 05:29:08;;;;;;;11.35;2.70;;;24.60;51.90;;;;;;5030162;28;20021;-86
2021/06/16 05:31:38;;;;;;;5.93;2.20;;;25.30;50.40;;;;;;5032597;28;20450;-82
2021/06/16 05:34:04;;;;;;;12.80;2.63;;;25.60;49.40;;;;;;5001426;28;20041;-86
2021/06/16 05:36:31;;;;;;;9.10;2.20;;;25.90;49.20;;;;;;5052585;28;20029;-83
2021/06/16 05:38:58;;;;;;;13.10;2.05;;;26.20;48.80;;;;;;5030686;28;20105;-83
2021/06/16 05:41:23;;;;;;;9.52;2.20;;;26.40;47.80;;;;;;5027095;28;20318;-81
2021/06/16 05:43:49;;;;;;;6.60;2.40;;;26.50;48.10;;;;;;5017797;28;20534;-84
2021/06/16 05:46:15;;;;;;;7.90;2.40;;;27.10;47.30;;;;;;5026689;28;20056;-85
2021/06/16 05:48:40;;;;;;;4.65;1.80;;;27.50;46.40;;;;;;5020253;28;20085;-82
2021/06/16 05:51:06;;;;;;;8.27;2.50;;;27.30;46.40;;;;;;5007897;28;20057;-85
2021/06/16 05:53:32;;;;;;;8.77;3.17;;;27.00;46.30;;;;;;5051836;28;20079;-82
2021/06/16 05:55:58;;;;;;;10.27;2.58;;;26.30;46.90;;;;;;5035077;28;20028;-82
2021/06/16 05:58:24;;;;;;;8.13;2.65;;;26.10;48.10;;;;;;5032697;28;20098;-83
2021/06/16 06:00:49;;;;;;;10.20;3.03;;;26.20;47.70;;;;;;5014949;28;20113;-82
2021/06/16 06:03:15;;;;;;;8.68;2.85;;;26.10;48.10;;;;;;5002754;28;20033;-82
2021/06/16 06:05:41;;;;;;;9.70;2.90;;;26.10;48.30;;;;;;5028609;28;20040;-82
2021/06/16 06:08:07;;;;;;;6.97;2.42;;;26.30;48.30;;;;;;5036438;28;20033;-81
2021/06/16 06:10:33;;;;;;;9.23;2.90;;;26.60;47.70;;;;;;5015747;28;20059;-82
2021/06/16 06:12:59;;;;;;;9.75;3.15;;;27.10;46.90;;;;;;5014540;28;20036;-81
2021/06/16 06:15:25;;;;;;;5.93;2.47;;;27.20;46.20;;;;;;5033612;28;20029;-82
2021/06/16 06:17:51;;;;;;;8.15;2.92;;;27.30;46.90;;;;;;5074035;28;20079;-82
2021/06/16 06:20:18;;;;;;;7.75;3.10;;;27.40;46.20;;;;;;5038938;28;20049;-82
2021/06/16 06:22:43;;;;;;;6.65;2.75;;;27.40;46.40;;;;;;5012911;28;20474;-81
2021/06/16 06:25:10;;;;;;;9.45;3.15;;;27.40;46.70;;;;;;5018606;28;20053;-82
2021/06/16 06:27:36;;;;;;;6.85;2.92;;;27.30;46.50;;;;;;5036632;28;20057;-81
2021/06/16 06:30:04;;;;;;;7.22;2.75;;;27.60;47.10;;;;;;5041616;28;20040;-82
2021/06/16 06:32:30;;;;;;;8.07;3.33;;;28.10;45.80;;;;;;5020929;28;20894;-81
2021/06/16 06:34:56;;;;;;;6.38;3.03;;;28.50;44.40;;;;;;5024873;28;20025;-81
2021/06/16 06:37:21;;;;;;;8.15;3.30;;;28.10;44.50;;;;;;5043044;28;20067;-83
2021/06/16 06:39:49;;;;;;;8.85;2.50;;;28.10;45.20;;;;;;5027337;28;20026;-83
2021/06/16 06:42:16;;;;;;;10.50;3.72;;;28.40;45.10;;;;;;5021924;28;20425;-87
2021/06/16 06:44:41;;;;;;;9.73;3.53;;;28.40;44.70;;;;;;5035084;28;20033;-80
2021/06/16 06:47:07;;;;;;;8.63;2.88;;;28.90;44.80;;;;;;5019175;28;20159;-83
2021/06/16 06:49:33;;;;;;;9.98;2.80;;;29.10;43.70;;;;;;5015296;28;20053;-82
2021/06/16 06:51:58;;;;;;;8.75;2.92;;;28.90;44.00;;;;;;5017441;28;20553;-82
2021/06/16 06:54:24;;;;;;;10.13;2.63;;;29.00;43.80;;;;;;5015633;28;20026;-81
2021/06/16 06:56:51;;;;;;;10.25;2.90;;;29.30;44.40;;;;;;5015217;28;20025;-81
2021/06/16 06:59:17;;;;;;;8.23;2.67;;;29.60;42.90;;;;;;5013457;28;20033;-82
2021/06/16 07:01:43;;;;;;;7.18;2.90;;;29.10;43.30;;;;;;5017470;28;20045;-82
2021/06/16 07:04:08;;;;;;;5.82;3.30;;;28.70;44.20;;;;;;5017430;28;20064;-79
2021/06/16 07:06:34;;;;;;;7.63;3.15;;;28.60;44.30;;;;;;5016748;28;20389;-84
2021/06/16 07:09:00;;;;;;;7.57;2.90;;;29.10;44.10;;;;;;5039521;28;20100;-81
2021/06/16 07:11:26;;;;;;;4.95;2.55;;;29.70;43.10;;;;;;5053028;28;20037;-84
2021/06/16 07:13:52;;;;;;;5.38;3.42;;;29.60;43.00;;;;;;5035360;28;20087;-83
2021/06/16 07:16:18;;;;;;;4.75;2.50;;;29.20;43.00;;;;;;5017122;28;20061;-84
2021/06/16 07:18:43;;;;;;;4.85;2.85;;;28.70;44.30;;;;;;5016606;28;20038;-80
2021/06/16 07:21:10;;;;;;;7.60;3.30;;;28.90;44.20;;;;;;5035189;28;20362;-81
2021/06/16 07:23:36;;;;;;;6.55;3.33;;;29.10;44.00;;;;;;5016412;28;20527;-81
2021/06/16 07:26:01;;;;;;;6.75;3.20;;;28.80;44.20;;;;;;5016137;28;20049;-83
2021/06/16 07:28:27;;;;;;;7.22;3.22;;;28.60;45.00;;;;;;5028894;28;20137;-79
2021/06/16 07:30:53;;;;;;;6.72;3.08;;;29.20;44.70;;;;;;5034735;28;20499;-85
2021/06/16 07:33:18;;;;;;;7.03;2.50;;;29.30;44.00;;;;;;5035790;28;20029;-83
2021/06/16 07:35:44;;;;;;;4.80;2.50;;;29.60;45.10;;;;;;5018524;28;20533;-83
2021/06/16 07:38:12;;;;;;;7.68;3.30;;;30.10;43.20;;;;;;5045258;28;20040;-81
2021/06/16 07:40:37;;;;;;;6.55;2.97;;;29.80;43.70;;;;;;5010525;28;20025;-80
2021/06/16 07:43:03;;;;;;;4.68;2.17;;;29.70;44.40;;;;;;5037301;28;20095;-85
2021/06/16 07:45:30;;;;;;;8.57;3.03;;;29.90;43.90;;;;;;5039732;28;20428;-80
2021/06/16 07:47:56;;;;;;;7.60;2.80;;;30.20;43.10;;;;;;5038323;28;20030;-80
2021/06/16 07:50:22;;;;;;;5.18;2.83;;;29.70;43.60;;;;;;5017470;28;20040;-79
2021/06/16 07:52:48;;;;;;;26.70;4.75;;;30.00;43.80;;;;;;5015956;28;20071;-80
2021/06/16 07:55:14;;;;;;;8.13;3.28;;;30.30;43.30;;;;;;5018927;28;20435;-80
2021/06/16 07:57:40;;;;;;;7.45;3.30;;;30.30;43.10;;;;;;5048032;28;20029;-80
2021/06/16 08:00:07;;;;;;;6.00;3.13;;;30.20;42.60;;;;;;4999724;28;20480;-80
2021/06/16 08:02:33;;;;;;;4.82;3.00;;;30.10;42.90;;;;;;4998771;28;20041;-79
2021/06/16 08:04:58;;;;;;;7.65;3.67;;;30.30;42.80;;;;;;5011890;28;20037;-80
2021/06/16 08:07:24;;;;;;;6.90;2.88;;;30.20;42.80;;;;;;5035540;28;20091;-80
2021/06/16 08:09:50;;;;;;;6.57;3.45;;;30.50;43.10;;;;;;5040091;28;20375;-81
2021/06/16 08:12:16;;;;;;;8.25;3.38;;;30.20;43.00;;;;;;5016089;28;20034;-80
2021/06/16 08:14:42;;;;;;;7.03;3.60;;;29.70;43.50;;;;;;5007193;28;20529;-80
2021/06/16 08:17:09;;;;;;;7.65;3.47;;;29.40;44.20;;;;;;5019430;28;20102;-80
2021/06/16 08:19:35;;;;;;;12.27;4.22;;;29.30;44.50;;;;;;5031848;28;20489;-82
2021/06/16 08:22:02;;;;;;;8.07;4.38;;;29.50;44.30;;;;;;5052845;28;20025;-82
2021/06/16 08:24:27;;;;;;;7.63;4.47;;;29.20;44.60;;;;;;5041846;28;20524;-81
2021/06/16 08:26:53;;;;;;;9.57;5.03;;;29.10;45.20;;;;;;5018197;28;20042;-80
2021/06/16 08:29:19;;;;;;;7.80;4.00;;;29.40;44.60;;;;;;5015980;28;20461;-81
2021/06/16 08:31:45;;;;;;;6.28;3.80;;;29.20;45.30;;;;;;4982688;28;20026;-80
2021/06/16 08:34:11;;;;;;;8.82;4.80;;;29.20;45.50;;;;;;5021813;28;20033;-82
2021/06/16 08:36:38;;;;;;;7.78;4.20;;;29.60;44.70;;;;;;5018294;28;20473;-80
2021/06/16 08:39:05;;;;;;;6.00;4.13;;;29.60;44.30;;;;;;5026871;28;20033;-80
2021/06/16 08:41:31;;;;;;;7.22;3.55;;;29.70;43.90;;;;;;5044490;28;20465;-84
2021/06/16 08:43:58;;;;;;;6.60;4.30;;;29.50;44.60;;;;;;5011422;28;20030;-80
2021/06/16 08:46:25;;;;;;;6.43;3.30;;;29.60;44.50;;;;;;5034436;28;20029;-79
2021/06/16 08:48:50;;;;;;;10.73;4.38;;;29.80;44.40;;;;;;5021152;28;20080;-76
2021/06/16 08:51:16;;;;;;;7.10;3.60;;;30.10;43.90;;;;;;5035637;28;20060;-81
2021/06/16 08:53:44;;;;;;;4.80;3.15;;;30.00;43.90;;;;;;5029082;28;20029;-80
2021/06/16 08:56:11;;;;;;;8.10;4.45;;;30.10;44.20;;;;;;5033055;28;20037;-82
2021/06/16 08:58:39;;;;;;;5.82;3.45;;;30.30;43.70;;;;;;5017340;28;20100;-84
2021/06/16 09:01:07;;;;;;;6.13;3.47;;;30.30;44.20;;;;;;5015042;28;20353;-79
2021/06/16 09:03:33;;;;;;;6.10;3.63;;;30.60;44.10;;;;;;5014054;28;20040;-80
2021/06/16 09:06:08;;;;;;;8.02;4.43;;;30.90;43.60;;;;;;5032146;28;20033;-82
2021/06/16 09:09:02;;;;;;;8.57;4.22;;;30.70;43.00;;;;;;5014622;28;20178;-80
2021/06/16 09:11:48;;;;;;;7.72;3.25;;;30.30;44.10;;;;;;5045249;28;20036;-79
2021/06/16 09:14:15;;;;;;;5.38;3.70;;;30.60;44.30;;;;;;5036945;28;20060;-81
2021/06/16 09:16:41;;;;;;;5.45;3.00;;;30.80;43.40;;;;;;5044986;28;20029;-82
2021/06/16 09:19:22;;;;;;;23.77;4.60;;;30.80;44.00;;;;;;5012661;28;20030;-81
2021/06/16 09:21:49;;;;;;;9.35;3.20;;;31.00;43.80;;;;;;5030031;28;20056;-80
2021/06/16 09:24:17;;;;;;;5.95;3.53;;;31.40;43.40;;;;;;5015341;28;20064;-80
2021/06/16 09:26:44;;;;;;;5.07;3.20;;;31.70;42.90;;;;;;5031537;28;20124;-80
2021/06/16 09:29:10;;;;;;;6.60;2.88;;;31.70;43.00;;;;;;5029719;28;20485;-80
2021/06/16 09:31:42;;;;;;;10.30;4.30;;;31.50;42.70;;;;;;5000450;28;20025;-78
2021/06/16 09:34:12;;;;;;;6.95;3.88;;;31.40;43.40;;;;;;5032568;28;20022;-80
2021/06/16 09:36:56;;;;;;;5.07;3.70;;;31.20;43.60;;;;;;5021050;28;20018;-81
2021/06/16 09:39:27;;;;;;;5.18;3.50;;;31.00;43.90;;;;;;5033623;28;20064;-80
2021/06/16 09:41:56;;;;;;;7.43;3.60;;;30.90;44.30;;;;;;5033850;28;20366;-81
2021/06/16 09:44:42;;;;;;;8.35;4.82;;;30.30;44.50;;;;;;5043203;28;20100;-80
2021/06/16 09:47:11;;;;;;;8.20;5.15;;;30.20;44.80;;;;;;4998726;28;20050;-78
2021/06/16 09:49:49;;;;;;;6.35;4.80;;;30.10;45.10;;;;;;5052016;28;20029;-79
2021/06/16 09:52:39;;;;;;;7.85;4.20;;;30.20;45.20;;;;;;5033990;28;20030;-81
2021/06/16 09:55:30;;;;;;;7.13;4.30;;;30.70;44.50;;;;;;5017141;28;20083;-79
2021/06/16 09:58:08;;;;;;;7.07;4.30;;;31.30;44.00;;;;;;5017594;28;20037;-81
2021/06/16 10:00:40;;;;;;;8.13;3.78;;;31.30;43.20;;;;;;5029648;28;20032;-79
2021/06/16 10:03:13;;;;;;;8.13;4.87;;;31.70;43.40;;;;;;5034932;28;20034;-81
2021/06/16 10:06:01;;;;;;;8.32;5.05;;;32.20;42.60;;;;;;5036215;28;20025;-80
2021/06/16 10:08:28;;;;;;;9.23;4.55;;;31.60;42.90;;;;;;5003157;28;20034;-83
2021/06/16 10:10:54;;;;;;;7.97;4.50;;;31.20;44.10;;;;;;5037905;28;20033;-81
2021/06/16 10:13:21;;;;;;;8.05;4.38;;;31.50;44.00;;;;;;5021088;28;20110;-82
2021/06/16 10:15:47;;;;;;;9.20;4.90;;;31.70;43.60;;;;;;5018227;28;20026;-85
2021/06/16 10:18:13;;;;;;;7.85;4.70;;;31.50;43.60;;;;;;5051178;28;20094;-82
2021/06/16 10:20:39;;;;;;;7.07;4.53;;;31.20;44.00;;;;;;5017132;28;20032;-79
2021/06/16 10:23:04;;;;;;;9.18;4.28;;;30.90;44.60;;;;;;5017072;28;20038;-81
2021/06/16 10:25:30;;;;;;;8.35;5.35;;;31.40;44.80;;;;;;5016806;28;20490;-81
2021/06/16 10:27:59;;;;;;;5.88;3.25;;;31.80;43.60;;;;;;5012702;28;20037;-83
2021/06/16 10:30:29;;;;;;;8.82;4.30;;;32.00;44.40;;;;;;5029728;28;20385;-83
2021/06/16 10:32:55;;;;;;;6.85;4.05;;;32.40;43.30;;;;;;5021120;28;20079;-82
2021/06/16 10:35:34;;;;;;;9.07;4.28;;;32.20;42.90;;;;;;5039045;28;20029;-80
2021/06/16 10:38:16;;;;;;;10.45;5.88;;;31.90;43.20;;;;;;5022821;28;20037;-81
2021/06/16 10:40:53;;;;;;;6.60;4.32;;;31.90;43.00;;;;;;5037092;28;20457;-79
2021/06/16 10:43:29;;;;;;;8.68;5.20;;;31.90;43.30;;;;;;5029220;28;20505;-84
2021/06/16 10:46:02;;;;;;;8.07;4.68;;;32.20;43.00;;;;;;5015957;28;20026;-87
2021/06/16 10:48:46;;;;;;;4.00;3.60;;;32.30;42.70;;;;;;5016082;28;20032;-80
2021/06/16 10:51:29;;;;;;;8.38;4.95;;;32.50;43.70;;;;;;5044024;28;20021;-81
2021/06/16 10:54:25;;;;;;;8.68;5.25;;;32.80;42.40;;;;;;5018256;28;20041;-79
2021/06/16 10:56:58;;;;;;;7.32;4.05;;;32.90;41.70;;;;;;5025839;28;20037;-88
2021/06/16 10:59:42;;;;;;;7.10;4.88;;;32.80;41.90;;;;;;5023958;28;20335;-81
2021/06/16 11:02:10;;;;;;;4.88;4.13;;;32.80;42.10;;;;;;5017567;28;20053;-81
2021/06/16 11:04:37;;;;;;;5.63;3.70;;;33.00;42.40;;;;;;5017635;28;20041;-80
2021/06/16 11:07:04;;;;;;;6.30;4.95;;;33.10;42.10;;;;;;5050818;28;20457;-81
2021/06/16 11:09:58;;;;;;;6.90;4.03;;;32.80;41.50;;;;;;5034248;28;20049;-81
2021/06/16 11:12:27;;;;;;;5.22;4.03;;;33.00;42.50;;;;;;5036477;28;20021;-79
2021/06/16 11:14:52;;;;;;;8.30;3.67;;;33.60;42.00;;;;;;5018972;28;20029;-85
2021/06/16 11:17:27;;;;;;;6.82;4.78;;;33.90;41.40;;;;;;5021478;28;20457;-83
2021/06/16 11:20:22;;;;;;;6.13;4.50;;;34.00;40.30;;;;;;5035584;28;20477;-84
2021/06/16 11:22:56;;;;;;;8.05;4.15;;;33.40;40.90;;;;;;5036014;28;20017;-82
2021/06/16 11:25:27;;;;;;;4.45;3.40;;;32.90;42.20;;;;;;5035603;28;20029;-80
2021/06/16 11:27:55;;;;;;;5.70;3.75;;;33.10;42.50;;;;;;5034489;28;20135;-81
2021/06/16 11:30:47;;;;;;;7.55;5.05;;;33.60;41.90;;;;;;5039158;28;20025;-81
2021/06/16 11:33:22;;;;;;;5.68;4.05;;;33.80;41.20;;;;;;5047203;28;20075;-81
2021/06/16 11:35:59;;;;;;;5.38;3.88;;;33.70;41.50;;;;;;5034132;28;20036;-82
2021/06/16 11:38:29;;;;;;;6.72;3.80;;;33.50;41.70;;;;;;5034061;28;20033;-79
2021/06/16 11:41:05;;;;;;;4.20;3.30;;;33.60;41.10;;;;;;5036184;28;20025;-79
2021/06/16 11:43:49;;;;;;;6.40;4.00;;;33.40;41.50;;;;;;5034138;28;20445;-81
2021/06/16 11:46:27;;;;;;;5.75;3.75;;;33.20;41.50;;;;;;5034996;28;20057;-79
2021/06/16 11:49:13;;;;;;;7.63;3.33;;;33.00;41.90;;;;;;5034565;28;20028;-82
2021/06/16 11:51:51;;;;;;;9.15;3.33;;;33.00;41.30;;;;;;5041523;28;20057;-81
2021/06/16 11:54:29;;;;;;;4.68;3.20;;;33.60;41.50;;;;;;5014796;28;20116;-79
2021/06/16 11:57:00;;;;;;;4.97;2.72;;;34.00;40.80;;;;;;5016842;28;20029;-79
2021/06/16 11:59:33;;;;;;;6.95;3.33;;;34.30;40.90;;;;;;5030490;28;20044;-80
2021/06/16 12:02:12;;;;;;;6.15;3.00;;;34.60;39.40;;;;;;5042141;28;20033;-78
2021/06/16 12:04:48;;;;;;;7.30;3.17;;;34.70;39.30;;;;;;5014591;28;20082;-80
2021/06/16 12:07:34;;;;;;;3.97;2.70;;;34.50;39.60;;;;;;5022816;28;20033;-79
2021/06/16 12:10:04;;;;;;;4.15;2.33;;;34.90;40.40;;;;;;5015795;28;20036;-80
2021/06/16 12:12:48;;;;;;;3.40;2.45;;;35.40;39.60;;;;;;5039365;28;20103;-81
2021/06/16 12:15:22;;;;;;;5.38;2.15;;;35.80;38.60;;;;;;5036038;28;20025;-82
2021/06/16 12:18:03;;;;;;;6.00;2.92;;;36.00;38.10;;;;;;5053136;28;20033;-81
2021/06/16 12:20:36;;;;;;;4.07;3.10;;;36.00;38.40;;;;;;5034682;28;20478;-81
2021/06/16 12:23:25;;;;;;;5.97;3.20;;;35.60;37.60;;;;;;5043574;28;20045;-82
2021/06/16 12:26:01;;;;;;;5.25;2.90;;;35.00;37.90;;;;;;5032829;28;20111;-81
2021/06/16 12:28:27;;;;;;;6.70;3.28;;;34.30;39.70;;;;;;5016189;28;20037;-80
2021/06/16 12:30:55;;;;;;;3.72;2.45;;;33.90;39.80;;;;;;5032431;28;20032;-81
2021/06/16 12:33:22;;;;;;;3.42;2.60;;;33.70;39.70;;;;;;5017133;28;20026;-82
2021/06/16 12:35:57;;;;;;;5.30;3.05;;;33.90;40.40;;;;;;5024130;28;20021;-83
2021/06/16 12:38:44;;;;;;;5.07;2.67;;;34.10;40.50;;;;;;5029577;28;20033;-82
2021/06/16 12:41:21;;;;;;;2.92;2.63;;;34.20;40.40;;;;;;5033824;28;20052;-85
2021/06/16 12:43:48;;;;;;;4.88;3.00;;;34.20;39.40;;;;;;5024243;28;20074;-81
2021/06/16 12:46:14;;;;;;;7.55;3.30;;;34.20;40.40;;;;;;5030465;28;20107;-82
2021/06/16 12:48:40;;;;;;;4.72;2.80;;;34.30;39.40;;;;;;5017419;28;20489;-81
2021/06/16 12:51:06;;;;;;;5.30;2.97;;;34.40;39.90;;;;;;5017656;28;20059;-85
2021/06/16 12:53:44;;;;;;;5.63;2.72;;;34.80;39.80;;;;;;5017756;28;20103;-82
2021/06/16 12:56:10;;;;;;;5.53;2.90;;;35.10;39.40;;;;;;5033266;28;20025;-86